Estación Meteorológica Peña el Pijo (Robertgarden) [ 09/24/17 17:32:20 CEST ]

Fecha Hora Presion(HPa) Temp (°C) Humedad % Rocio (°C) Viento ( m/s) Direccion Lluvia 1Hora(mm) Lluvia 24H(mm) LLuvia Total(mm)
2017-Apr-09 01:01:44 1013.100 5.1 71 0.3         1357.67
2017-Apr-09 02:01:54 1013.300 4.2 74 -0.1         1357.67
2017-Apr-09 03:02:12 1012.600 3.2 76 -0.6         1357.67
2017-Apr-09 04:02:23 1012.100 2.5 78 -1.0         1357.67
2017-Apr-09 05:02:17 1011.900 2.1 79 -1.2         1357.67
2017-Apr-09 06:02:10 1011.800 1.3 80 -1.8         1357.67
2017-Apr-09 07:01:48 1011.700 0.4 81 -2.5         1357.67
2017-Apr-09 08:01:47 1012.200 -0.4 82 -3.1         1357.67
2017-Apr-09 09:01:57 1012.900 3.6 84 1.1         1357.67
2017-Apr-09 10:01:47 1012.700 10.1 69 4.7         1357.67
2017-Apr-09 11:01:47 1012.900 14.3 43 1.8 1.2 ESE     1357.67
2017-Apr-09 12:01:43 1013.500 15.7 35 0.1 3.4 SSW     1357.67
2017-Apr-09 13:01:40 1013.300 18.5 37 3.4         1357.67
2017-Apr-09 14:01:49 1013.100 18.8 34 2.5         1357.67
2017-Apr-09 15:01:44 1013.000 18.9 33 2.2 0.9 W     1357.67
2017-Apr-09 16:01:41 1012.800 19.0 36 3.5         1357.67
2017-Apr-09 17:01:37 1012.700 19.3 36 3.8 3.3 S     1357.67
2017-Apr-09 18:01:38 1012.500 18.4 37 3.4         1357.67
2017-Apr-09 19:01:42 1012.700 17.3 41 3.9 1.4 SSW     1357.67
2017-Apr-09 20:01:51 1013.000 14.8 49 4.2         1357.67
2017-Apr-09 21:01:56 1013.500 12.7 59 4.9         1357.67
2017-Apr-09 22:01:47 1014.600 11.2 69 5.8         1357.67
2017-Apr-09 23:01:42 1015.200 9.9 72 5.1         1357.67

Temperatura Máxima:19°    Temperatura Mínima:
Presión Máxima:1015.200 Hpa    Presión Mínima:1011.700 Hpa


Volver